sensor_id;sensor_type;location;lat;lon;timestamp;pressure;altitude;pressure_sealevel;temperature;humidity
77410;BME280;66481;51.332;22.804;2024-03-08T00:03:33;100409.44;;;-4.37;100.00
77410;BME280;66481;51.332;22.804;2024-03-08T00:07:35;100412.03;;;-4.36;100.00
77410;BME280;66481;51.332;22.804;2024-03-08T00:11:36;100417.19;;;-4.25;100.00
77410;BME280;66481;51.332;22.804;2024-03-08T00:15:38;100411.16;;;-4.25;100.00
77410;BME280;66481;51.332;22.804;2024-03-08T00:19:39;100406.00;;;-4.25;100.00
77410;BME280;66481;51.332;22.804;2024-03-08T00:23:42;100406.84;;;-4.28;100.00
77410;BME280;66481;51.332;22.804;2024-03-08T00:27:43;100405.13;;;-4.30;100.00
77410;BME280;66481;51.332;22.804;2024-03-08T00:31:44;100402.56;;;-4.41;100.00
77410;BME280;66481;51.332;22.804;2024-03-08T00:35:45;100398.25;;;-4.47;100.00
77410;BME280;66481;51.332;22.804;2024-03-08T00:39:46;100392.22;;;-4.41;100.00
77410;BME280;66481;51.332;22.804;2024-03-08T00:43:47;100385.38;;;-4.53;100.00
77410;BME280;66481;51.332;22.804;2024-03-08T00:47:48;100376.78;;;-4.70;100.00
77410;BME280;66481;51.332;22.804;2024-03-08T00:51:50;100380.22;;;-4.82;100.00
77410;BME280;66481;51.332;22.804;2024-03-08T00:55:51;100390.53;;;-4.85;100.00
77410;BME280;66481;51.332;22.804;2024-03-08T00:59:52;100389.69;;;-4.80;100.00
77410;BME280;66481;51.332;22.804;2024-03-08T01:03:53;100396.56;;;-4.83;100.00
77410;BME280;66481;51.332;22.804;2024-03-08T01:07:54;100385.38;;;-4.84;100.00
77410;BME280;66481;51.332;22.804;2024-03-08T01:11:55;100382.81;;;-4.87;100.00
77410;BME280;66481;51.332;22.804;2024-03-08T01:15:57;100383.66;;;-4.94;100.00
77410;BME280;66481;51.332;22.804;2024-03-08T01:19:58;100381.94;;;-4.94;100.00
77410;BME280;66481;51.332;22.804;2024-03-08T01:23:59;100383.66;;;-4.99;100.00
77410;BME280;66481;51.332;22.804;2024-03-08T01:28:00;100382.81;;;-4.98;100.00
77410;BME280;66481;51.332;22.804;2024-03-08T01:32:03;100382.81;;;-4.99;100.00
77410;BME280;66481;51.332;22.804;2024-03-08T01:36:06;100379.34;;;-5.11;100.00
77410;BME280;66481;51.332;22.804;2024-03-08T01:40:07;100378.50;;;-5.06;100.00
77410;BME280;66481;51.332;22.804;2024-03-08T01:44:09;100373.31;;;-5.10;100.00
77410;BME280;66481;51.332;22.804;2024-03-08T01:48:10;100373.31;;;-5.10;100.00
77410;BME280;66481;51.332;22.804;2024-03-08T01:52:13;100370.75;;;-5.14;100.00
77410;BME280;66481;51.332;22.804;2024-03-08T01:56:15;100368.19;;;-5.17;100.00
77410;BME280;66481;51.332;22.804;2024-03-08T02:00:17;100365.59;;;-5.10;100.00
77410;BME280;66481;51.332;22.804;2024-03-08T02:04:19;100369.88;;;-5.04;100.00
77410;BME280;66481;51.332;22.804;2024-03-08T02:08:22;100364.75;;;-5.08;100.00
77410;BME280;66481;51.332;22.804;2024-03-08T02:12:23;100358.69;;;-4.95;100.00
77410;BME280;66481;51.332;22.804;2024-03-08T02:16:25;100363.03;;;-4.93;100.00
77410;BME280;66481;51.332;22.804;2024-03-08T02:20:28;100360.44;;;-4.97;100.00
77410;BME280;66481;51.332;22.804;2024-03-08T02:24:30;100357.88;;;-4.91;100.00
77410;BME280;66481;51.332;22.804;2024-03-08T02:28:31;100359.56;;;-4.88;100.00
77410;BME280;66481;51.332;22.804;2024-03-08T02:32:33;100357.84;;;-4.88;100.00
77410;BME280;66481;51.332;22.804;2024-03-08T02:36:34;100356.97;;;-4.90;100.00
77410;BME280;66481;51.332;22.804;2024-03-08T02:40:35;100361.28;;;-4.94;100.00
77410;BME280;66481;51.332;22.804;2024-03-08T02:44:36;100355.28;;;-4.93;100.00
77410;BME280;66481;51.332;22.804;2024-03-08T02:48:38;100356.13;;;-4.87;100.00
77410;BME280;66481;51.332;22.804;2024-03-08T02:52:40;100362.13;;;-4.78;100.00
77410;BME280;66481;51.332;22.804;2024-03-08T02:56:42;100353.53;;;-4.75;100.00
77410;BME280;66481;51.332;22.804;2024-03-08T03:00:43;100356.97;;;-4.62;100.00
77410;BME280;66481;51.332;22.804;2024-03-08T03:04:45;100365.56;;;-4.59;100.00
77410;BME280;66481;51.332;22.804;2024-03-08T03:08:46;100358.69;;;-4.66;100.00
77410;BME280;66481;51.332;22.804;2024-03-08T03:12:48;100364.72;;;-4.64;100.00
77410;BME280;66481;51.332;22.804;2024-03-08T03:16:49;100363.00;;;-4.73;100.00
77410;BME280;66481;51.332;22.804;2024-03-08T03:20:51;100362.16;;;-4.84;100.00
77410;BME280;66481;51.332;22.804;2024-03-08T03:24:52;100362.16;;;-4.88;100.00
77410;BME280;66481;51.332;22.804;2024-03-08T03:28:54;100359.56;;;-4.88;100.00
77410;BME280;66481;51.332;22.804;2024-03-08T03:32:55;100363.88;;;-4.84;100.00
77410;BME280;66481;51.332;22.804;2024-03-08T03:36:59;100351.84;;;-4.82;100.00
77410;BME280;66481;51.332;22.804;2024-03-08T03:41:01;100358.69;;;-4.69;100.00
77410;BME280;66481;51.332;22.804;2024-03-08T03:45:10;100350.94;;;-4.83;100.00
77410;BME280;66481;51.332;22.804;2024-03-08T03:49:12;100354.41;;;-4.88;100.00
77410;BME280;66481;51.332;22.804;2024-03-08T03:53:13;100350.09;;;-4.97;100.00
77410;BME280;66481;51.332;22.804;2024-03-08T03:57:14;100349.25;;;-4.87;100.00
77410;BME280;66481;51.332;22.804;2024-03-08T04:01:15;100344.09;;;-4.85;100.00
77410;BME280;66481;51.332;22.804;2024-03-08T04:05:16;100326.03;;;-4.99;100.00
77410;BME280;66481;51.332;22.804;2024-03-08T04:09:17;100314.84;;;-5.17;100.00
77410;BME280;66481;51.332;22.804;2024-03-08T04:13:23;100308.81;;;-5.25;100.00
77410;BME280;66481;51.332;22.804;2024-03-08T04:17:24;100319.13;;;-5.26;100.00
77410;BME280;66481;51.332;22.804;2024-03-08T04:21:25;100325.16;;;-5.31;100.00
77410;BME280;66481;51.332;22.804;2024-03-08T04:25:26;100332.91;;;-5.20;100.00
77410;BME280;66481;51.332;22.804;2024-03-08T04:29:28;100339.78;;;-5.00;100.00
77410;BME280;66481;51.332;22.804;2024-03-08T04:33:29;100333.75;;;-5.07;100.00
77410;BME280;66481;51.332;22.804;2024-03-08T04:37:32;100323.47;;;-5.22;100.00
77410;BME280;66481;51.332;22.804;2024-03-08T04:41:33;100321.75;;;-5.19;100.00
77410;BME280;66481;51.332;22.804;2024-03-08T04:45:35;100330.34;;;-5.15;100.00
77410;BME280;66481;51.332;22.804;2024-03-08T04:49:36;100323.44;;;-5.19;100.00
77410;BME280;66481;51.332;22.804;2024-03-08T04:53:37;100320.88;;;-5.25;100.00
77410;BME280;66481;51.332;22.804;2024-03-08T04:57:38;100319.16;;;-5.36;100.00
77410;BME280;66481;51.332;22.804;2024-03-08T05:01:39;100320.88;;;-5.36;100.00
77410;BME280;66481;51.332;22.804;2024-03-08T05:05:41;100336.34;;;-5.10;100.00
77410;BME280;66481;51.332;22.804;2024-03-08T05:09:42;100353.53;;;-4.77;100.00
77410;BME280;66481;51.332;22.804;2024-03-08T05:13:43;100368.94;;;-4.17;100.00
77410;BME280;66481;51.332;22.804;2024-03-08T05:17:57;100372.94;;;-3.48;100.00
77410;BME280;66481;51.332;22.804;2024-03-08T05:21:58;100386.25;;;-2.75;100.00
77410;BME280;66481;51.332;22.804;2024-03-08T05:25:59;100377.81;;;-2.07;100.00
77410;BME280;66481;51.332;22.804;2024-03-08T05:30:03;100368.38;;;-1.46;100.00
77410;BME280;66481;51.332;22.804;2024-03-08T05:34:05;100356.34;;;-0.92;100.00
77410;BME280;66481;51.332;22.804;2024-03-08T05:38:06;100347.66;;;-0.42;100.00
77410;BME280;66481;51.332;22.804;2024-03-08T05:42:08;100324.28;;;0.02;100.00
77410;BME280;66481;51.332;22.804;2024-03-08T05:46:15;100309.31;;;0.52;100.00
77410;BME280;66481;51.332;22.804;2024-03-08T05:50:17;100313.00;;;1.16;100.00
77410;BME280;66481;51.332;22.804;2024-03-08T05:54:19;100276.63;;;1.45;98.69
77410;BME280;66481;51.332;22.804;2024-03-08T05:58:24;100273.91;;;2.11;95.65
77410;BME280;66481;51.332;22.804;2024-03-08T06:02:25;100272.38;;;2.60;91.24
77410;BME280;66481;51.332;22.804;2024-03-08T06:06:26;100279.03;;;3.48;87.49
77410;BME280;66481;51.332;22.804;2024-03-08T06:10:27;100286.59;;;4.04;82.89
77410;BME280;66481;51.332;22.804;2024-03-08T06:14:29;100270.19;;;4.23;79.17
77410;BME280;66481;51.332;22.804;2024-03-08T06:18:31;100275.06;;;4.76;76.87
77410;BME280;66481;51.332;22.804;2024-03-08T06:22:32;100279.38;;;5.40;74.99
77410;BME280;66481;51.332;22.804;2024-03-08T06:26:33;100260.22;;;5.78;71.92
77410;BME280;66481;51.332;22.804;2024-03-08T06:30:35;100278.47;;;6.57;70.97
77410;BME280;66481;51.332;22.804;2024-03-08T06:34:36;100246.34;;;6.87;68.21
77410;BME280;66481;51.332;22.804;2024-03-08T06:38:40;100235.47;;;6.94;66.97
77410;BME280;66481;51.332;22.804;2024-03-08T06:42:43;100233.34;;;7.36;67.26
77410;BME280;66481;51.332;22.804;2024-03-08T06:46:44;100221.97;;;7.85;66.52
77410;BME280;66481;51.332;22.804;2024-03-08T06:50:47;100200.72;;;7.72;64.79
77410;BME280;66481;51.332;22.804;2024-03-08T06:54:48;100178.53;;;7.92;64.01
77410;BME280;66481;51.332;22.804;2024-03-08T06:58:49;100182.06;;;8.71;62.11
77410;BME280;66481;51.332;22.804;2024-03-08T07:02:53;100198.47;;;9.49;60.46
77410;BME280;66481;51.332;22.804;2024-03-08T07:06:57;100177.72;;;9.57;61.29
77410;BME280;66481;51.332;22.804;2024-03-08T07:10:58;100173.81;;;10.33;60.36
77410;BME280;66481;51.332;22.804;2024-03-08T07:15:00;100184.38;;;11.26;58.72
77410;BME280;66481;51.332;22.804;2024-03-08T07:19:01;100190.03;;;12.21;57.42
77410;BME280;66481;51.332;22.804;2024-03-08T07:23:03;100147.88;;;12.06;55.69
77410;BME280;66481;51.332;22.804;2024-03-08T07:27:06;100135.69;;;12.27;55.50
77410;BME280;66481;51.332;22.804;2024-03-08T07:31:07;100129.50;;;12.97;53.17
77410;BME280;66481;51.332;22.804;2024-03-08T07:35:18;100099.69;;;13.16;51.27
77410;BME280;66481;51.332;22.804;2024-03-08T07:39:20;100091.88;;;13.49;50.29
77410;BME280;66481;51.332;22.804;2024-03-08T07:43:24;100095.34;;;13.49;51.56
77410;BME280;66481;51.332;22.804;2024-03-08T07:47:28;100098.44;;;13.77;49.79
77410;BME280;66481;51.332;22.804;2024-03-08T07:51:33;100106.53;;;14.52;48.43
77410;BME280;66481;51.332;22.804;2024-03-08T07:55:36;100061.00;;;14.13;46.90
77410;BME280;66481;51.332;22.804;2024-03-08T07:59:37;100079.03;;;14.09;48.73
77410;BME280;66481;51.332;22.804;2024-03-08T08:03:38;100097.59;;;14.95;46.85
77410;BME280;66481;51.332;22.804;2024-03-08T08:07:39;100097.47;;;14.75;48.42
77410;BME280;66481;51.332;22.804;2024-03-08T08:11:44;100063.13;;;15.03;46.21
77410;BME280;66481;51.332;22.804;2024-03-08T08:15:45;100057.28;;;15.50;43.96
77410;BME280;66481;51.332;22.804;2024-03-08T08:19:47;100048.44;;;15.49;44.62
77410;BME280;66481;51.332;22.804;2024-03-08T08:23:48;100016.78;;;15.75;42.12
77410;BME280;66481;51.332;22.804;2024-03-08T08:27:49;100048.91;;;15.74;44.24
77410;BME280;66481;51.332;22.804;2024-03-08T08:31:50;100055.69;;;15.97;43.96
77410;BME280;66481;51.332;22.804;2024-03-08T08:35:52;100083.94;;;16.29;44.53
77410;BME280;66481;51.332;22.804;2024-03-08T08:39:54;100056.41;;;16.19;42.80
77410;BME280;66481;51.332;22.804;2024-03-08T08:43:55;100021.69;;;15.80;42.62
77410;BME280;66481;51.332;22.804;2024-03-08T08:47:57;100020.75;;;15.50;43.59
77410;BME280;66481;51.332;22.804;2024-03-08T08:52:00;100039.66;;;16.07;42.96
77410;BME280;66481;51.332;22.804;2024-03-08T08:56:02;100058.81;;;16.99;41.96
77410;BME280;66481;51.332;22.804;2024-03-08T09:00:04;100024.91;;;16.32;42.20
77410;BME280;66481;51.332;22.804;2024-03-08T09:04:23;100016.63;;;16.92;41.05
77410;BME280;66481;51.332;22.804;2024-03-08T09:08:24;100055.13;;;17.65;40.22
77410;BME280;66481;51.332;22.804;2024-03-08T09:12:26;99983.94;;;16.61;38.87
77410;BME280;66481;51.332;22.804;2024-03-08T09:16:27;100029.25;;;17.00;39.63
77410;BME280;66481;51.332;22.804;2024-03-08T09:20:32;100009.50;;;16.73;38.50
77410;BME280;66481;51.332;22.804;2024-03-08T09:24:33;100029.59;;;17.71;37.34
77410;BME280;66481;51.332;22.804;2024-03-08T09:28:34;100016.00;;;16.61;40.51
77410;BME280;66481;51.332;22.804;2024-03-08T09:32:36;100022.41;;;16.78;39.93
77410;BME280;66481;51.332;22.804;2024-03-08T09:36:37;100002.88;;;16.11;40.55
77410;BME280;66481;51.332;22.804;2024-03-08T09:40:41;100029.16;;;15.96;41.29
77410;BME280;66481;51.332;22.804;2024-03-08T09:44:46;99991.78;;;15.76;40.30
77410;BME280;66481;51.332;22.804;2024-03-08T09:48:47;100008.69;;;16.63;39.03
77410;BME280;66481;51.332;22.804;2024-03-08T09:52:49;100016.25;;;16.68;39.36
77410;BME280;66481;51.332;22.804;2024-03-08T09:56:51;99998.09;;;16.05;39.81
77410;BME280;66481;51.332;22.804;2024-03-08T10:00:54;99971.16;;;16.55;37.07
77410;BME280;66481;51.332;22.804;2024-03-08T10:04:58;100008.81;;;17.09;38.43
77410;BME280;66481;51.332;22.804;2024-03-08T10:08:59;99989.91;;;16.35;38.75
77410;BME280;66481;51.332;22.804;2024-03-08T10:13:00;99963.94;;;16.65;36.25
77410;BME280;66481;51.332;22.804;2024-03-08T10:17:03;99993.00;;;16.88;37.19
77410;BME280;66481;51.332;22.804;2024-03-08T10:21:06;99983.91;;;16.71;37.18
77410;BME280;66481;51.332;22.804;2024-03-08T10:25:11;99957.16;;;14.55;38.63
77410;BME280;66481;51.332;22.804;2024-03-08T10:29:13;99979.88;;;14.07;40.36
77410;BME280;66481;51.332;22.804;2024-03-08T10:33:16;99966.00;;;14.55;38.45
77410;BME280;66481;51.332;22.804;2024-03-08T10:37:21;99998.91;;;15.06;39.49
77410;BME280;66481;51.332;22.804;2024-03-08T10:41:29;99998.59;;;14.99;39.33
77410;BME280;66481;51.332;22.804;2024-03-08T10:45:37;99994.97;;;15.00;39.80
77410;BME280;66481;51.332;22.804;2024-03-08T10:49:51;99989.09;;;15.07;39.86
77410;BME280;66481;51.332;22.804;2024-03-08T10:53:57;100015.00;;;15.35;40.79
77410;BME280;66481;51.332;22.804;2024-03-08T10:58:00;99952.69;;;14.34;40.21
77410;BME280;66481;51.332;22.804;2024-03-08T11:02:01;99963.59;;;13.89;41.49
77410;BME280;66481;51.332;22.804;2024-03-08T11:06:03;99977.84;;;14.62;39.27
77410;BME280;66481;51.332;22.804;2024-03-08T11:10:04;100002.19;;;15.29;39.82
77410;BME280;66481;51.332;22.804;2024-03-08T11:14:06;99979.13;;;14.99;40.92
77410;BME280;66481;51.332;22.804;2024-03-08T11:18:27;99981.53;;;14.50;41.33
77410;BME280;66481;51.332;22.804;2024-03-08T11:22:32;99955.63;;;13.89;41.58
77410;BME280;66481;51.332;22.804;2024-03-08T11:26:34;99945.53;;;13.39;42.74
77410;BME280;66481;51.332;22.804;2024-03-08T11:30:38;99943.25;;;13.23;40.35
77410;BME280;66481;51.332;22.804;2024-03-08T11:34:43;99943.69;;;12.51;43.64
77410;BME280;66481;51.332;22.804;2024-03-08T11:38:45;99949.81;;;13.08;40.72
77410;BME280;66481;51.332;22.804;2024-03-08T11:42:49;99941.41;;;12.57;41.93
77410;BME280;66481;51.332;22.804;2024-03-08T11:46:53;99890.06;;;11.89;41.54
77410;BME280;66481;51.332;22.804;2024-03-08T11:51:04;99911.53;;;11.26;43.58
77410;BME280;66481;51.332;22.804;2024-03-08T11:55:06;99948.81;;;10.86;46.53
77410;BME280;66481;51.332;22.804;2024-03-08T11:59:11;99913.94;;;10.30;45.20
77410;BME280;66481;51.332;22.804;2024-03-08T12:03:13;99913.00;;;9.65;46.34
77410;BME280;66481;51.332;22.804;2024-03-08T12:07:15;99916.13;;;9.45;45.93
77410;BME280;66481;51.332;22.804;2024-03-08T12:11:20;99915.09;;;9.47;46.67
77410;BME280;66481;51.332;22.804;2024-03-08T12:15:25;99894.97;;;8.77;46.68
77410;BME280;66481;51.332;22.804;2024-03-08T12:19:28;99934.53;;;8.63;49.52
77410;BME280;66481;51.332;22.804;2024-03-08T12:23:29;99952.47;;;9.14;49.60
77410;BME280;66481;51.332;22.804;2024-03-08T12:27:34;99966.16;;;8.92;50.66
77410;BME280;66481;51.332;22.804;2024-03-08T12:31:35;99966.44;;;8.87;50.44
77410;BME280;66481;51.332;22.804;2024-03-08T12:35:36;99962.75;;;9.04;50.31
77410;BME280;66481;51.332;22.804;2024-03-08T12:39:40;99945.25;;;8.60;50.22
77410;BME280;66481;51.332;22.804;2024-03-08T12:43:44;99952.91;;;8.50;51.17
77410;BME280;66481;51.332;22.804;2024-03-08T12:47:51;99948.19;;;8.55;50.82
77410;BME280;66481;51.332;22.804;2024-03-08T12:51:56;99944.41;;;8.59;49.87
77410;BME280;66481;51.332;22.804;2024-03-08T12:55:58;99958.16;;;8.79;51.37
77410;BME280;66481;51.332;22.804;2024-03-08T12:59:59;99943.66;;;8.72;50.32
77410;BME280;66481;51.332;22.804;2024-03-08T13:04:00;99940.06;;;8.29;51.79
77410;BME280;66481;51.332;22.804;2024-03-08T13:08:06;99937.00;;;7.93;51.75
77410;BME280;66481;51.332;22.804;2024-03-08T13:12:13;99940.63;;;7.76;53.90
77410;BME280;66481;51.332;22.804;2024-03-08T13:16:14;99949.53;;;8.18;53.19
77410;BME280;66481;51.332;22.804;2024-03-08T13:20:19;99931.19;;;8.16;52.70
77410;BME280;66481;51.332;22.804;2024-03-08T13:24:22;99907.06;;;7.33;52.12
77410;BME280;66481;51.332;22.804;2024-03-08T13:28:23;99934.56;;;8.04;54.14
77410;BME280;66481;51.332;22.804;2024-03-08T13:32:30;99932.88;;;8.03;53.50
77410;BME280;66481;51.332;22.804;2024-03-08T13:36:32;99917.13;;;7.87;51.96
77410;BME280;66481;51.332;22.804;2024-03-08T13:40:40;99918.91;;;7.86;52.28
77410;BME280;66481;51.332;22.804;2024-03-08T13:44:44;99929.09;;;7.93;53.57
77410;BME280;66481;51.332;22.804;2024-03-08T13:48:46;99915.75;;;7.65;53.51
77410;BME280;66481;51.332;22.804;2024-03-08T13:52:49;99920.41;;;7.30;54.62
77410;BME280;66481;51.332;22.804;2024-03-08T13:56:54;99905.81;;;7.24;53.41
77410;BME280;66481;51.332;22.804;2024-03-08T14:00:56;99915.81;;;7.33;54.45
77410;BME280;66481;51.332;22.804;2024-03-08T14:04:57;99912.34;;;7.33;53.72
77410;BME280;66481;51.332;22.804;2024-03-08T14:08:58;99895.66;;;6.86;54.14
77410;BME280;66481;51.332;22.804;2024-03-08T14:13:00;99921.69;;;7.23;54.78
77410;BME280;66481;51.332;22.804;2024-03-08T14:17:03;99905.41;;;7.00;55.59
77410;BME280;66481;51.332;22.804;2024-03-08T14:21:05;99894.81;;;6.70;55.19
77410;BME280;66481;51.332;22.804;2024-03-08T14:25:06;99890.78;;;6.47;54.82
77410;BME280;66481;51.332;22.804;2024-03-08T14:29:14;99881.69;;;6.20;55.78
77410;BME280;66481;51.332;22.804;2024-03-08T14:33:15;99909.13;;;6.64;55.95
77410;BME280;66481;51.332;22.804;2024-03-08T14:37:17;99907.78;;;6.73;56.46
77410;BME280;66481;51.332;22.804;2024-03-08T14:41:24;99898.69;;;6.63;56.21
77410;BME280;66481;51.332;22.804;2024-03-08T14:45:25;99901.31;;;6.63;57.19
77410;BME280;66481;51.332;22.804;2024-03-08T14:49:27;99893.44;;;6.47;56.73
77410;BME280;66481;51.332;22.804;2024-03-08T14:53:30;99885.28;;;6.35;56.56
77410;BME280;66481;51.332;22.804;2024-03-08T14:57:32;99896.63;;;6.36;57.36
77410;BME280;66481;51.332;22.804;2024-03-08T15:01:33;99893.84;;;6.39;57.23
77410;BME280;66481;51.332;22.804;2024-03-08T15:05:36;99864.91;;;6.23;55.58
77410;BME280;66481;51.332;22.804;2024-03-08T15:09:44;99871.28;;;6.01;56.56
77410;BME280;66481;51.332;22.804;2024-03-08T15:13:45;99876.31;;;5.89;57.27
77410;BME280;66481;51.332;22.804;2024-03-08T15:17:47;99868.91;;;5.79;57.63
77410;BME280;66481;51.332;22.804;2024-03-08T15:21:50;99880.78;;;5.69;59.12
77410;BME280;66481;51.332;22.804;2024-03-08T15:25:52;99891.84;;;5.76;59.68
77410;BME280;66481;51.332;22.804;2024-03-08T15:29:53;99872.84;;;5.53;57.91
77410;BME280;66481;51.332;22.804;2024-03-08T15:33:56;99879.66;;;5.40;59.35
77410;BME280;66481;51.332;22.804;2024-03-08T15:38:07;99877.88;;;5.23;59.61
77410;BME280;66481;51.332;22.804;2024-03-08T15:42:09;99880.00;;;5.15;59.52
77410;BME280;66481;51.332;22.804;2024-03-08T15:46:12;99873.56;;;5.03;58.70
77410;BME280;66481;51.332;22.804;2024-03-08T15:50:14;99877.69;;;4.89;59.50
77410;BME280;66481;51.332;22.804;2024-03-08T15:54:16;99889.63;;;4.78;61.76
77410;BME280;66481;51.332;22.804;2024-03-08T15:58:18;99891.41;;;4.58;62.50
77410;BME280;66481;51.332;22.804;2024-03-08T16:02:19;99898.22;;;4.43;62.89
77410;BME280;66481;51.332;22.804;2024-03-08T16:06:22;99910.94;;;4.32;65.18
77410;BME280;66481;51.332;22.804;2024-03-08T16:10:24;99907.31;;;4.16;65.68
77410;BME280;66481;51.332;22.804;2024-03-08T16:14:26;99910.72;;;3.97;65.71
77410;BME280;66481;51.332;22.804;2024-03-08T16:18:27;99899.41;;;3.76;64.92
77410;BME280;66481;51.332;22.804;2024-03-08T16:22:32;99887.22;;;3.54;64.17
77410;BME280;66481;51.332;22.804;2024-03-08T16:26:34;99900.53;;;3.28;66.05
77410;BME280;66481;51.332;22.804;2024-03-08T16:30:45;99913.00;;;2.99;68.16
77410;BME280;66481;51.332;22.804;2024-03-08T16:34:49;99931.44;;;2.96;70.21
77410;BME280;66481;51.332;22.804;2024-03-08T16:38:52;99937.84;;;2.87;73.76
77410;BME280;66481;51.332;22.804;2024-03-08T16:42:53;99924.97;;;2.82;70.57
77410;BME280;66481;51.332;22.804;2024-03-08T16:46:59;99914.06;;;2.71;69.16
77410;BME280;66481;51.332;22.804;2024-03-08T16:51:00;99930.47;;;2.75;69.17
77410;BME280;66481;51.332;22.804;2024-03-08T16:55:05;99928.44;;;2.59;69.60
77410;BME280;66481;51.332;22.804;2024-03-08T16:59:08;99935.78;;;2.50;69.65
77410;BME280;66481;51.332;22.804;2024-03-08T17:03:11;99935.19;;;2.41;70.91
77410;BME280;66481;51.332;22.804;2024-03-08T17:07:13;99950.13;;;2.38;72.35
77410;BME280;66481;51.332;22.804;2024-03-08T17:11:14;99946.03;;;2.05;74.00
77410;BME280;66481;51.332;22.804;2024-03-08T17:15:16;99956.22;;;1.88;75.98
77410;BME280;66481;51.332;22.804;2024-03-08T17:19:24;99942.94;;;1.69;76.82
77410;BME280;66481;51.332;22.804;2024-03-08T17:23:27;99950.56;;;1.75;76.46
77410;BME280;66481;51.332;22.804;2024-03-08T17:27:28;99955.19;;;1.67;78.23
77410;BME280;66481;51.332;22.804;2024-03-08T17:31:29;99955.94;;;1.44;79.11
77410;BME280;66481;51.332;22.804;2024-03-08T17:35:33;99950.13;;;1.36;78.66
77410;BME280;66481;51.332;22.804;2024-03-08T17:39:37;99933.91;;;1.26;78.77
77410;BME280;66481;51.332;22.804;2024-03-08T17:43:39;99944.03;;;1.08;79.55
77410;BME280;66481;51.332;22.804;2024-03-08T17:47:42;99957.06;;;1.08;80.57
77410;BME280;66481;51.332;22.804;2024-03-08T17:51:43;99954.78;;;0.98;81.13
77410;BME280;66481;51.332;22.804;2024-03-08T17:55:46;99957.75;;;0.85;81.30
77410;BME280;66481;51.332;22.804;2024-03-08T17:59:53;99947.88;;;0.67;81.83
77410;BME280;66481;51.332;22.804;2024-03-08T18:03:54;99952.03;;;0.72;80.78
77410;BME280;66481;51.332;22.804;2024-03-08T18:07:56;99947.78;;;0.70;79.83
77410;BME280;66481;51.332;22.804;2024-03-08T18:11:58;99958.13;;;0.73;80.93
77410;BME280;66481;51.332;22.804;2024-03-08T18:16:00;99945.78;;;0.48;82.17
77410;BME280;66481;51.332;22.804;2024-03-08T18:20:01;99955.38;;;0.48;83.87
77410;BME280;66481;51.332;22.804;2024-03-08T18:24:06;99961.38;;;0.50;84.74
77410;BME280;66481;51.332;22.804;2024-03-08T18:28:08;99954.41;;;0.19;85.13
77410;BME280;66481;51.332;22.804;2024-03-08T18:32:17;99949.31;;;-0.17;85.69
77410;BME280;66481;51.332;22.804;2024-03-08T18:36:21;99955.19;;;-0.43;87.01
77410;BME280;66481;51.332;22.804;2024-03-08T18:40:23;99955.44;;;-0.55;87.95
77410;BME280;66481;51.332;22.804;2024-03-08T18:44:25;99949.59;;;-0.62;87.37
77410;BME280;66481;51.332;22.804;2024-03-08T18:48:28;99947.97;;;-0.68;87.62
77410;BME280;66481;51.332;22.804;2024-03-08T18:52:31;99947.38;;;-0.79;87.38
77410;BME280;66481;51.332;22.804;2024-03-08T18:56:35;99949.28;;;-0.87;88.36
77410;BME280;66481;51.332;22.804;2024-03-08T19:00:37;99952.00;;;-0.93;88.97
77410;BME280;66481;51.332;22.804;2024-03-08T19:04:43;99954.13;;;-1.11;89.23
77410;BME280;66481;51.332;22.804;2024-03-08T19:08:45;99961.09;;;-1.13;90.85
77410;BME280;66481;51.332;22.804;2024-03-08T19:12:52;99960.63;;;-0.90;91.24
77410;BME280;66481;51.332;22.804;2024-03-08T19:16:55;99958.19;;;-0.98;91.18
77410;BME280;66481;51.332;22.804;2024-03-08T19:20:57;99963.78;;;-1.16;91.58
77410;BME280;66481;51.332;22.804;2024-03-08T19:24:59;99955.56;;;-1.37;92.22
77410;BME280;66481;51.332;22.804;2024-03-08T19:29:03;99957.34;;;-1.40;94.42
77410;BME280;66481;51.332;22.804;2024-03-08T19:33:06;99961.72;;;-1.42;95.21
77410;BME280;66481;51.332;22.804;2024-03-08T19:37:18;99965.13;;;-1.40;96.20
77410;BME280;66481;51.332;22.804;2024-03-08T19:41:22;99964.22;;;-1.38;97.75
77410;BME280;66481;51.332;22.804;2024-03-08T19:45:28;99966.97;;;-1.45;97.82
77410;BME280;66481;51.332;22.804;2024-03-08T19:49:30;99971.34;;;-1.47;99.17
77410;BME280;66481;51.332;22.804;2024-03-08T19:53:33;99973.38;;;-1.62;99.41
77410;BME280;66481;51.332;22.804;2024-03-08T19:57:36;99973.41;;;-1.63;99.59
77410;BME280;66481;51.332;22.804;2024-03-08T20:01:39;99979.38;;;-1.60;99.88
77410;BME280;66481;51.332;22.804;2024-03-08T20:05:53;99971.81;;;-1.28;98.48
77410;BME280;66481;51.332;22.804;2024-03-08T20:09:56;99964.31;;;-1.42;98.02
77410;BME280;66481;51.332;22.804;2024-03-08T20:14:03;99968.94;;;-1.15;96.91
77410;BME280;66481;51.332;22.804;2024-03-08T20:18:06;99954.06;;;-1.08;95.38
77410;BME280;66481;51.332;22.804;2024-03-08T20:22:10;99943.97;;;-1.20;94.82
77410;BME280;66481;51.332;22.804;2024-03-08T20:26:12;99948.41;;;-1.25;95.42
77410;BME280;66481;51.332;22.804;2024-03-08T20:30:25;99949.69;;;-1.45;95.54
77410;BME280;66481;51.332;22.804;2024-03-08T20:34:29;99941.56;;;-1.72;96.33
77410;BME280;66481;51.332;22.804;2024-03-08T20:38:31;99955.50;;;-1.77;97.51
77410;BME280;66481;51.332;22.804;2024-03-08T20:42:33;99960.72;;;-1.79;98.65
77410;BME280;66481;51.332;22.804;2024-03-08T20:46:34;99959.91;;;-1.81;99.43
77410;BME280;66481;51.332;22.804;2024-03-08T20:50:36;99964.47;;;-1.94;100.00
77410;BME280;66481;51.332;22.804;2024-03-08T20:54:40;99960.19;;;-1.96;100.00
77410;BME280;66481;51.332;22.804;2024-03-08T20:58:43;99970.50;;;-1.93;100.00
77410;BME280;66481;51.332;22.804;2024-03-08T21:02:47;99967.16;;;-2.00;100.00